This is the latest recevied weather packets stored in our database for station/object KB4MOX. If no packets are shown the sender has not sent any weather packets the latest 1 day(s).
| Time | Temp. | Humidity | Pressure | Rain* | Wind** | Luminosity | Snow |
|---|---|---|---|---|---|---|---|
| 1778009091 | 27.78° C | 41% | 1015.5 hPa | 0 mm | 0.45 m/s, 139° | 729 W/m² | - |
| 1778008788 | 27.78° C | 41% | 1015.4 hPa | 0 mm | 0.45 m/s, 105° | 700 W/m² | - |
| 1778008487 | 27.78° C | 41% | 1015.5 hPa | 0 mm | 1.79 m/s, 284° | 697 W/m² | - |
| 1778008183 | 28.89° C | 40% | 1015.5 hPa | 0 mm | 0.89 m/s, 195° | 752 W/m² | - |
| 1778007878 | 28.33° C | 43% | 1015.6 hPa | 0 mm | 0.45 m/s, 80° | 878 W/m² | - |
| 1778007574 | 28.33° C | 42% | 1015.6 hPa | 0 mm | 0.89 m/s, 66° | 722 W/m² | - |
| 1778007272 | 27.78° C | 43% | 1015.8 hPa | 0 mm | 0.89 m/s, 284° | 779 W/m² | - |
| 1778006968 | 27.22° C | 43% | 1015.9 hPa | 0 mm | 0.45 m/s, 101° | 807 W/m² | - |
| 1778006665 | 27.78° C | 42% | 1015.8 hPa | 0 mm | 0.89 m/s, 356° | 796 W/m² | - |
| 1778006356 | 27.22° C | 43% | 1016.1 hPa | 0 mm | 0.45 m/s, 23° | 658 W/m² | - |
| 1778006054 | 27.22° C | 42% | 1016.3 hPa | 0 mm | 1.79 m/s, 118° | 721 W/m² | - |
| 1778005750 | 27.22° C | 44% | 1016.2 hPa | 0 mm | 0.45 m/s, 158° | 832 W/m² | - |
| 1778005447 | 27.78° C | 42% | 1016.3 hPa | 0 mm | 0.45 m/s, 107° | 867 W/m² | - |
| 1778005143 | 27.78° C | 42% | 1016.4 hPa | 0 mm | 0.89 m/s, 117° | 902 W/m² | - |
| 1778004840 | 27.22° C | 43% | 1016.2 hPa | 0 mm | 1.34 m/s, 256° | 851 W/m² | - |
| 1778004536 | 27.22° C | 43% | 1016.4 hPa | 0 mm | 2.24 m/s, 230° | 314 W/m² | - |
| 1778004233 | 26.67° C | 44% | 1016.4 hPa | 0 mm | 1.34 m/s, 214° | 868 W/m² | - |
| 1778003930 | 26.67° C | 45% | 1016.5 hPa | 0 mm | 0.45 m/s, 79° | 941 W/m² | - |
| 1778003626 | 26.67° C | 45% | 1016.5 hPa | 0 mm | 0.89 m/s, 174° | 224 W/m² | - |
| 1778003322 | 27.22° C | 43% | 1016.5 hPa | 0 mm | 1.79 m/s, 106° | 895 W/m² | - |
| 1778003021 | 27.22° C | 44% | 1016.5 hPa | 0 mm | 0.89 m/s, 234° | 806 W/m² | - |
| 1778002716 | 26.11° C | 47% | 1016.7 hPa | 0 mm | 0.89 m/s, 255° | 864 W/m² | - |
| 1778002412 | 26.67° C | 44% | 1016.6 hPa | 0 mm | 0.89 m/s, 67° | 148 W/m² | - |
| 1778002105 | 26.67° C | 43% | 1016.7 hPa | 0 mm | 0.89 m/s, 127° | 226 W/m² | - |
| 1778001802 | 26.67° C | 44% | 1016.8 hPa | 0 mm | 0.89 m/s, 266° | 197 W/m² | - |
* Rain latest hour (hover to see other rain measurements)
** Current wind speed in m/s (hover to see current wind gust speed)